sensor_id;sensor_type;location;lat;lon;timestamp;P1;durP1;ratioP1;P2;durP2;ratioP2
14484;SDS011;7328;50.812;4.422;2022-10-31T00:00:51;13.97;;;8.50;;
14484;SDS011;7328;50.812;4.422;2022-10-31T00:03:16;13.00;;;10.03;;
14484;SDS011;7328;50.812;4.422;2022-10-31T00:05:43;12.20;;;8.40;;
14484;SDS011;7328;50.812;4.422;2022-10-31T00:08:10;11.23;;;8.50;;
14484;SDS011;7328;50.812;4.422;2022-10-31T00:10:39;11.27;;;8.67;;
14484;SDS011;7328;50.812;4.422;2022-10-31T00:13:07;18.53;;;9.10;;
14484;SDS011;7328;50.812;4.422;2022-10-31T00:15:34;10.20;;;8.60;;
14484;SDS011;7328;50.812;4.422;2022-10-31T00:18:01;13.30;;;8.53;;
14484;SDS011;7328;50.812;4.422;2022-10-31T00:20:27;14.07;;;9.23;;
14484;SDS011;7328;50.812;4.422;2022-10-31T00:22:53;14.27;;;9.33;;
14484;SDS011;7328;50.812;4.422;2022-10-31T00:25:22;10.73;;;8.97;;
14484;SDS011;7328;50.812;4.422;2022-10-31T00:27:47;16.50;;;9.60;;
14484;SDS011;7328;50.812;4.422;2022-10-31T00:30:13;27.73;;;11.53;;
14484;SDS011;7328;50.812;4.422;2022-10-31T00:32:39;16.33;;;10.67;;
14484;SDS011;7328;50.812;4.422;2022-10-31T00:35:05;13.70;;;9.83;;
14484;SDS011;7328;50.812;4.422;2022-10-31T00:37:30;14.90;;;10.20;;
14484;SDS011;7328;50.812;4.422;2022-10-31T00:39:56;16.40;;;9.47;;
14484;SDS011;7328;50.812;4.422;2022-10-31T00:42:22;14.10;;;9.67;;
14484;SDS011;7328;50.812;4.422;2022-10-31T00:44:48;13.53;;;9.73;;
14484;SDS011;7328;50.812;4.422;2022-10-31T00:47:13;14.13;;;9.77;;
14484;SDS011;7328;50.812;4.422;2022-10-31T00:49:39;14.40;;;9.13;;
14484;SDS011;7328;50.812;4.422;2022-10-31T00:52:05;11.57;;;8.73;;
14484;SDS011;7328;50.812;4.422;2022-10-31T00:54:31;14.70;;;9.13;;
14484;SDS011;7328;50.812;4.422;2022-10-31T00:56:57;12.30;;;9.73;;
14484;SDS011;7328;50.812;4.422;2022-10-31T00:59:23;15.93;;;9.93;;
14484;SDS011;7328;50.812;4.422;2022-10-31T01:01:48;16.00;;;11.43;;
14484;SDS011;7328;50.812;4.422;2022-10-31T01:04:14;10.97;;;9.23;;
14484;SDS011;7328;50.812;4.422;2022-10-31T01:06:40;13.93;;;11.43;;
14484;SDS011;7328;50.812;4.422;2022-10-31T01:09:06;9.43;;;8.63;;
14484;SDS011;7328;50.812;4.422;2022-10-31T01:11:32;9.73;;;8.70;;
14484;SDS011;7328;50.812;4.422;2022-10-31T01:13:57;19.57;;;9.57;;
14484;SDS011;7328;50.812;4.422;2022-10-31T01:16:24;16.90;;;8.70;;
14484;SDS011;7328;50.812;4.422;2022-10-31T01:18:51;12.03;;;8.97;;
14484;SDS011;7328;50.812;4.422;2022-10-31T01:21:18;10.63;;;8.30;;
14484;SDS011;7328;50.812;4.422;2022-10-31T01:23:49;12.67;;;8.90;;
14484;SDS011;7328;50.812;4.422;2022-10-31T01:26:17;17.33;;;9.03;;
14484;SDS011;7328;50.812;4.422;2022-10-31T01:28:48;16.40;;;8.43;;
14484;SDS011;7328;50.812;4.422;2022-10-31T01:31:14;12.67;;;9.27;;
14484;SDS011;7328;50.812;4.422;2022-10-31T01:33:41;12.90;;;8.23;;
14484;SDS011;7328;50.812;4.422;2022-10-31T01:36:15;14.67;;;9.57;;
14484;SDS011;7328;50.812;4.422;2022-10-31T01:38:43;12.47;;;8.93;;
14484;SDS011;7328;50.812;4.422;2022-10-31T01:41:09;15.40;;;8.90;;
14484;SDS011;7328;50.812;4.422;2022-10-31T01:46:39;12.27;;;7.93;;
14484;SDS011;7328;50.812;4.422;2022-10-31T01:49:40;10.87;;;9.20;;
14484;SDS011;7328;50.812;4.422;2022-10-31T01:54:33;12.00;;;9.30;;
14484;SDS011;7328;50.812;4.422;2022-10-31T01:57:04;11.97;;;9.23;;
14484;SDS011;7328;50.812;4.422;2022-10-31T01:59:33;11.27;;;8.93;;
14484;SDS011;7328;50.812;4.422;2022-10-31T02:02:04;10.90;;;8.40;;
14484;SDS011;7328;50.812;4.422;2022-10-31T02:04:31;12.70;;;8.20;;
14484;SDS011;7328;50.812;4.422;2022-10-31T02:09:31;18.87;;;8.87;;
14484;SDS011;7328;50.812;4.422;2022-10-31T02:11:59;12.50;;;8.13;;
14484;SDS011;7328;50.812;4.422;2022-10-31T02:14:26;16.33;;;9.00;;
14484;SDS011;7328;50.812;4.422;2022-10-31T02:16:54;16.80;;;8.77;;
14484;SDS011;7328;50.812;4.422;2022-10-31T02:22:26;9.23;;;8.27;;
14484;SDS011;7328;50.812;4.422;2022-10-31T02:33:25;11.07;;;8.53;;
14484;SDS011;7328;50.812;4.422;2022-10-31T02:35:58;15.20;;;9.43;;
14484;SDS011;7328;50.812;4.422;2022-10-31T02:46:47;12.77;;;8.57;;
14484;SDS011;7328;50.812;4.422;2022-10-31T02:52:28;12.93;;;9.53;;
14484;SDS011;7328;50.812;4.422;2022-10-31T02:54:56;14.07;;;8.37;;
14484;SDS011;7328;50.812;4.422;2022-10-31T02:57:25;12.50;;;7.90;;
14484;SDS011;7328;50.812;4.422;2022-10-31T03:00:07;12.10;;;8.10;;
14484;SDS011;7328;50.812;4.422;2022-10-31T03:08:15;12.37;;;8.10;;
14484;SDS011;7328;50.812;4.422;2022-10-31T03:10:57;13.87;;;8.23;;
14484;SDS011;7328;50.812;4.422;2022-10-31T03:13:32;14.97;;;8.17;;
14484;SDS011;7328;50.812;4.422;2022-10-31T03:16:05;13.63;;;8.93;;
14484;SDS011;7328;50.812;4.422;2022-10-31T03:21:13;13.07;;;8.43;;
14484;SDS011;7328;50.812;4.422;2022-10-31T03:23:43;9.73;;;8.73;;
14484;SDS011;7328;50.812;4.422;2022-10-31T03:26:11;11.20;;;9.37;;
14484;SDS011;7328;50.812;4.422;2022-10-31T03:28:52;12.07;;;7.93;;
14484;SDS011;7328;50.812;4.422;2022-10-31T03:31:26;14.60;;;9.73;;
14484;SDS011;7328;50.812;4.422;2022-10-31T03:33:56;11.90;;;9.77;;
14484;SDS011;7328;50.812;4.422;2022-10-31T03:36:25;15.23;;;9.03;;
14484;SDS011;7328;50.812;4.422;2022-10-31T03:38:53;10.37;;;9.23;;
14484;SDS011;7328;50.812;4.422;2022-10-31T03:41:21;12.80;;;7.80;;
14484;SDS011;7328;50.812;4.422;2022-10-31T03:43:54;13.33;;;8.27;;
14484;SDS011;7328;50.812;4.422;2022-10-31T03:46:23;14.63;;;9.10;;
14484;SDS011;7328;50.812;4.422;2022-10-31T03:48:49;10.13;;;8.47;;
14484;SDS011;7328;50.812;4.422;2022-10-31T03:53:56;10.73;;;9.00;;
14484;SDS011;7328;50.812;4.422;2022-10-31T03:56:36;14.30;;;9.13;;
14484;SDS011;7328;50.812;4.422;2022-10-31T03:59:20;10.93;;;8.80;;
14484;SDS011;7328;50.812;4.422;2022-10-31T04:01:52;16.63;;;8.80;;
14484;SDS011;7328;50.812;4.422;2022-10-31T04:04:24;10.20;;;8.27;;
14484;SDS011;7328;50.812;4.422;2022-10-31T04:06:52;11.37;;;8.63;;
14484;SDS011;7328;50.812;4.422;2022-10-31T04:09:21;11.57;;;7.83;;
14484;SDS011;7328;50.812;4.422;2022-10-31T04:11:51;12.50;;;7.40;;
14484;SDS011;7328;50.812;4.422;2022-10-31T04:14:20;10.17;;;7.87;;
14484;SDS011;7328;50.812;4.422;2022-10-31T04:16:49;11.90;;;7.90;;
14484;SDS011;7328;50.812;4.422;2022-10-31T04:19:15;11.60;;;6.57;;
14484;SDS011;7328;50.812;4.422;2022-10-31T04:21:41;15.63;;;8.13;;
14484;SDS011;7328;50.812;4.422;2022-10-31T04:24:09;10.03;;;8.53;;
14484;SDS011;7328;50.812;4.422;2022-10-31T04:26:36;9.90;;;8.60;;
14484;SDS011;7328;50.812;4.422;2022-10-31T04:29:02;13.17;;;8.07;;
14484;SDS011;7328;50.812;4.422;2022-10-31T04:31:28;12.30;;;8.40;;
14484;SDS011;7328;50.812;4.422;2022-10-31T04:33:53;10.57;;;8.50;;
14484;SDS011;7328;50.812;4.422;2022-10-31T04:36:19;11.50;;;7.60;;
14484;SDS011;7328;50.812;4.422;2022-10-31T04:38:45;12.13;;;9.17;;
14484;SDS011;7328;50.812;4.422;2022-10-31T04:41:11;10.20;;;7.80;;
14484;SDS011;7328;50.812;4.422;2022-10-31T04:43:37;11.83;;;7.53;;
14484;SDS011;7328;50.812;4.422;2022-10-31T04:46:02;11.37;;;8.67;;
14484;SDS011;7328;50.812;4.422;2022-10-31T04:48:29;13.80;;;8.60;;
14484;SDS011;7328;50.812;4.422;2022-10-31T04:51:02;11.33;;;8.27;;
14484;SDS011;7328;50.812;4.422;2022-10-31T04:53:28;17.57;;;8.57;;
14484;SDS011;7328;50.812;4.422;2022-10-31T04:55:54;11.93;;;8.73;;
14484;SDS011;7328;50.812;4.422;2022-10-31T04:58:22;10.93;;;8.77;;
14484;SDS011;7328;50.812;4.422;2022-10-31T05:00:50;14.33;;;8.93;;
14484;SDS011;7328;50.812;4.422;2022-10-31T05:03:18;9.70;;;8.77;;
14484;SDS011;7328;50.812;4.422;2022-10-31T05:05:43;11.87;;;8.73;;
14484;SDS011;7328;50.812;4.422;2022-10-31T05:08:09;10.43;;;8.10;;
14484;SDS011;7328;50.812;4.422;2022-10-31T05:10:35;12.77;;;8.10;;
14484;SDS011;7328;50.812;4.422;2022-10-31T05:13:01;12.03;;;8.37;;
14484;SDS011;7328;50.812;4.422;2022-10-31T05:15:29;9.03;;;8.20;;
14484;SDS011;7328;50.812;4.422;2022-10-31T05:17:54;11.60;;;8.13;;
14484;SDS011;7328;50.812;4.422;2022-10-31T05:20:22;14.70;;;8.30;;
14484;SDS011;7328;50.812;4.422;2022-10-31T05:22:54;9.20;;;8.07;;
14484;SDS011;7328;50.812;4.422;2022-10-31T05:25:21;11.57;;;8.43;;
14484;SDS011;7328;50.812;4.422;2022-10-31T05:27:49;9.10;;;8.23;;
14484;SDS011;7328;50.812;4.422;2022-10-31T05:30:17;9.37;;;8.17;;
14484;SDS011;7328;50.812;4.422;2022-10-31T05:32:47;16.73;;;8.13;;
14484;SDS011;7328;50.812;4.422;2022-10-31T05:35:18;12.67;;;8.10;;
14484;SDS011;7328;50.812;4.422;2022-10-31T05:37:46;8.77;;;7.70;;
14484;SDS011;7328;50.812;4.422;2022-10-31T05:40:12;12.03;;;8.73;;
14484;SDS011;7328;50.812;4.422;2022-10-31T05:42:39;12.47;;;7.63;;
14484;SDS011;7328;50.812;4.422;2022-10-31T05:45:07;11.50;;;7.87;;
14484;SDS011;7328;50.812;4.422;2022-10-31T05:47:34;9.67;;;7.17;;
14484;SDS011;7328;50.812;4.422;2022-10-31T05:50:00;15.20;;;8.20;;
14484;SDS011;7328;50.812;4.422;2022-10-31T05:52:26;10.97;;;8.50;;
14484;SDS011;7328;50.812;4.422;2022-10-31T05:54:51;18.90;;;8.77;;
14484;SDS011;7328;50.812;4.422;2022-10-31T05:57:17;15.43;;;8.97;;
14484;SDS011;7328;50.812;4.422;2022-10-31T05:59:43;13.93;;;9.87;;
14484;SDS011;7328;50.812;4.422;2022-10-31T06:02:09;16.20;;;8.37;;
14484;SDS011;7328;50.812;4.422;2022-10-31T06:04:34;12.07;;;9.53;;
14484;SDS011;7328;50.812;4.422;2022-10-31T06:07:00;13.00;;;8.40;;
14484;SDS011;7328;50.812;4.422;2022-10-31T06:09:26;12.77;;;8.00;;
14484;SDS011;7328;50.812;4.422;2022-10-31T06:11:52;27.37;;;9.00;;
14484;SDS011;7328;50.812;4.422;2022-10-31T06:14:17;10.27;;;7.97;;
14484;SDS011;7328;50.812;4.422;2022-10-31T06:16:43;10.13;;;7.70;;
14484;SDS011;7328;50.812;4.422;2022-10-31T06:19:09;9.77;;;8.87;;
14484;SDS011;7328;50.812;4.422;2022-10-31T06:21:35;10.70;;;8.10;;
14484;SDS011;7328;50.812;4.422;2022-10-31T06:24:00;10.67;;;9.17;;
14484;SDS011;7328;50.812;4.422;2022-10-31T06:26:26;15.50;;;8.97;;
14484;SDS011;7328;50.812;4.422;2022-10-31T06:28:52;11.10;;;8.07;;
14484;SDS011;7328;50.812;4.422;2022-10-31T06:31:17;12.50;;;8.23;;
14484;SDS011;7328;50.812;4.422;2022-10-31T06:33:43;14.83;;;10.00;;
14484;SDS011;7328;50.812;4.422;2022-10-31T06:36:09;10.67;;;8.13;;
14484;SDS011;7328;50.812;4.422;2022-10-31T06:38:35;20.63;;;9.63;;
14484;SDS011;7328;50.812;4.422;2022-10-31T06:41:04;13.03;;;8.77;;
14484;SDS011;7328;50.812;4.422;2022-10-31T06:43:30;15.50;;;9.50;;
14484;SDS011;7328;50.812;4.422;2022-10-31T06:45:56;11.87;;;8.97;;
14484;SDS011;7328;50.812;4.422;2022-10-31T06:48:22;19.63;;;10.23;;
14484;SDS011;7328;50.812;4.422;2022-10-31T06:50:48;18.43;;;9.73;;
14484;SDS011;7328;50.812;4.422;2022-10-31T06:53:14;20.47;;;10.20;;
14484;SDS011;7328;50.812;4.422;2022-10-31T06:55:42;20.40;;;10.67;;
14484;SDS011;7328;50.812;4.422;2022-10-31T06:58:10;12.37;;;8.73;;
14484;SDS011;7328;50.812;4.422;2022-10-31T07:00:37;16.17;;;9.73;;
14484;SDS011;7328;50.812;4.422;2022-10-31T07:03:04;22.97;;;10.27;;
14484;SDS011;7328;50.812;4.422;2022-10-31T07:05:34;14.90;;;11.00;;
14484;SDS011;7328;50.812;4.422;2022-10-31T07:08:01;27.80;;;12.00;;
14484;SDS011;7328;50.812;4.422;2022-10-31T07:10:29;24.30;;;11.57;;
14484;SDS011;7328;50.812;4.422;2022-10-31T07:12:58;16.10;;;11.63;;
14484;SDS011;7328;50.812;4.422;2022-10-31T07:15:33;17.87;;;10.10;;
14484;SDS011;7328;50.812;4.422;2022-10-31T07:18:05;23.50;;;12.97;;
14484;SDS011;7328;50.812;4.422;2022-10-31T07:20:34;18.73;;;11.30;;
14484;SDS011;7328;50.812;4.422;2022-10-31T07:23:00;20.43;;;10.80;;
14484;SDS011;7328;50.812;4.422;2022-10-31T07:25:26;14.30;;;10.43;;
14484;SDS011;7328;50.812;4.422;2022-10-31T07:27:54;21.40;;;11.70;;
14484;SDS011;7328;50.812;4.422;2022-10-31T07:30:20;15.37;;;11.47;;
14484;SDS011;7328;50.812;4.422;2022-10-31T07:32:50;25.90;;;12.03;;
14484;SDS011;7328;50.812;4.422;2022-10-31T07:35:19;19.37;;;12.57;;
14484;SDS011;7328;50.812;4.422;2022-10-31T07:37:53;18.80;;;12.77;;
14484;SDS011;7328;50.812;4.422;2022-10-31T07:40:20;15.77;;;11.73;;
14484;SDS011;7328;50.812;4.422;2022-10-31T07:42:48;25.70;;;12.83;;
14484;SDS011;7328;50.812;4.422;2022-10-31T07:45:17;18.20;;;12.73;;
14484;SDS011;7328;50.812;4.422;2022-10-31T07:47:45;17.73;;;12.13;;
14484;SDS011;7328;50.812;4.422;2022-10-31T07:50:12;21.73;;;11.60;;
14484;SDS011;7328;50.812;4.422;2022-10-31T07:52:39;24.20;;;13.33;;
14484;SDS011;7328;50.812;4.422;2022-10-31T07:55:05;12.53;;;11.20;;
14484;SDS011;7328;50.812;4.422;2022-10-31T07:57:31;17.60;;;11.87;;
14484;SDS011;7328;50.812;4.422;2022-10-31T07:59:57;20.30;;;12.73;;
14484;SDS011;7328;50.812;4.422;2022-10-31T08:02:23;25.53;;;13.90;;
14484;SDS011;7328;50.812;4.422;2022-10-31T08:04:50;16.83;;;11.47;;
14484;SDS011;7328;50.812;4.422;2022-10-31T08:07:16;19.87;;;12.77;;
14484;SDS011;7328;50.812;4.422;2022-10-31T08:09:42;20.13;;;12.33;;
14484;SDS011;7328;50.812;4.422;2022-10-31T08:12:08;18.80;;;13.23;;
14484;SDS011;7328;50.812;4.422;2022-10-31T08:14:34;15.63;;;11.93;;
14484;SDS011;7328;50.812;4.422;2022-10-31T08:16:59;16.40;;;11.80;;
14484;SDS011;7328;50.812;4.422;2022-10-31T08:19:25;18.33;;;12.83;;
14484;SDS011;7328;50.812;4.422;2022-10-31T08:21:51;21.10;;;12.17;;
14484;SDS011;7328;50.812;4.422;2022-10-31T08:24:17;22.77;;;13.17;;
14484;SDS011;7328;50.812;4.422;2022-10-31T08:26:43;19.80;;;13.73;;
14484;SDS011;7328;50.812;4.422;2022-10-31T08:29:09;17.30;;;11.97;;
14484;SDS011;7328;50.812;4.422;2022-10-31T08:31:35;14.87;;;11.17;;
14484;SDS011;7328;50.812;4.422;2022-10-31T08:34:01;15.80;;;9.73;;
14484;SDS011;7328;50.812;4.422;2022-10-31T08:36:27;14.23;;;10.67;;
14484;SDS011;7328;50.812;4.422;2022-10-31T08:38:54;16.23;;;10.37;;
14484;SDS011;7328;50.812;4.422;2022-10-31T08:41:20;16.23;;;11.03;;
14484;SDS011;7328;50.812;4.422;2022-10-31T08:43:46;18.23;;;12.37;;
14484;SDS011;7328;50.812;4.422;2022-10-31T08:46:12;14.50;;;11.93;;
14484;SDS011;7328;50.812;4.422;2022-10-31T08:48:37;16.40;;;11.33;;
14484;SDS011;7328;50.812;4.422;2022-10-31T08:51:04;11.20;;;10.20;;
14484;SDS011;7328;50.812;4.422;2022-10-31T08:53:30;20.97;;;11.70;;
14484;SDS011;7328;50.812;4.422;2022-10-31T08:55:56;19.47;;;11.17;;
14484;SDS011;7328;50.812;4.422;2022-10-31T08:58:22;19.17;;;12.47;;
14484;SDS011;7328;50.812;4.422;2022-10-31T09:00:50;21.87;;;11.50;;
14484;SDS011;7328;50.812;4.422;2022-10-31T09:03:19;17.40;;;10.50;;
14484;SDS011;7328;50.812;4.422;2022-10-31T09:05:50;13.23;;;8.53;;
14484;SDS011;7328;50.812;4.422;2022-10-31T09:08:19;12.07;;;9.17;;
14484;SDS011;7328;50.812;4.422;2022-10-31T09:10:44;13.83;;;9.33;;
14484;SDS011;7328;50.812;4.422;2022-10-31T09:13:16;11.13;;;8.47;;
14484;SDS011;7328;50.812;4.422;2022-10-31T09:15:45;27.40;;;9.87;;
14484;SDS011;7328;50.812;4.422;2022-10-31T09:18:12;13.00;;;9.83;;
14484;SDS011;7328;50.812;4.422;2022-10-31T09:20:40;11.40;;;8.97;;
14484;SDS011;7328;50.812;4.422;2022-10-31T09:23:08;14.03;;;8.57;;
14484;SDS011;7328;50.812;4.422;2022-10-31T09:25:35;14.83;;;8.77;;
14484;SDS011;7328;50.812;4.422;2022-10-31T09:28:03;10.13;;;8.93;;
14484;SDS011;7328;50.812;4.422;2022-10-31T09:30:30;13.03;;;10.10;;
14484;SDS011;7328;50.812;4.422;2022-10-31T09:32:58;13.77;;;8.43;;
14484;SDS011;7328;50.812;4.422;2022-10-31T09:35:25;12.20;;;8.20;;
14484;SDS011;7328;50.812;4.422;2022-10-31T09:38:02;11.43;;;8.70;;
14484;SDS011;7328;50.812;4.422;2022-10-31T09:40:37;16.27;;;10.30;;
14484;SDS011;7328;50.812;4.422;2022-10-31T09:43:18;16.27;;;9.87;;
14484;SDS011;7328;50.812;4.422;2022-10-31T09:52:00;23.03;;;8.00;;
14484;SDS011;7328;50.812;4.422;2022-10-31T09:54:49;14.10;;;8.70;;
14484;SDS011;7328;50.812;4.422;2022-10-31T09:57:25;14.17;;;9.53;;
14484;SDS011;7328;50.812;4.422;2022-10-31T09:59:54;14.00;;;12.50;;
14484;SDS011;7328;50.812;4.422;2022-10-31T10:02:26;18.53;;;10.80;;
14484;SDS011;7328;50.812;4.422;2022-10-31T10:05:00;15.33;;;10.13;;
14484;SDS011;7328;50.812;4.422;2022-10-31T10:07:32;11.33;;;9.30;;
14484;SDS011;7328;50.812;4.422;2022-10-31T10:10:02;16.80;;;9.97;;
14484;SDS011;7328;50.812;4.422;2022-10-31T10:17:42;14.87;;;7.70;;
14484;SDS011;7328;50.812;4.422;2022-10-31T10:20:42;14.13;;;8.00;;
14484;SDS011;7328;50.812;4.422;2022-10-31T10:25:44;13.03;;;7.33;;
14484;SDS011;7328;50.812;4.422;2022-10-31T10:33:40;17.40;;;9.13;;
14484;SDS011;7328;50.812;4.422;2022-10-31T10:36:30;8.30;;;7.23;;
14484;SDS011;7328;50.812;4.422;2022-10-31T10:39:05;15.33;;;9.40;;
14484;SDS011;7328;50.812;4.422;2022-10-31T10:41:39;12.83;;;7.63;;
14484;SDS011;7328;50.812;4.422;2022-10-31T10:44:10;9.20;;;7.40;;
14484;SDS011;7328;50.812;4.422;2022-10-31T10:46:43;12.23;;;8.30;;
14484;SDS011;7328;50.812;4.422;2022-10-31T10:58:01;8.90;;;7.23;;
14484;SDS011;7328;50.812;4.422;2022-10-31T11:02:56;9.47;;;8.03;;
14484;SDS011;7328;50.812;4.422;2022-10-31T11:08:23;8.90;;;8.00;;
14484;SDS011;7328;50.812;4.422;2022-10-31T11:13:41;10.83;;;8.17;;
14484;SDS011;7328;50.812;4.422;2022-10-31T11:16:10;11.33;;;7.80;;
14484;SDS011;7328;50.812;4.422;2022-10-31T11:18:43;9.90;;;7.80;;
14484;SDS011;7328;50.812;4.422;2022-10-31T11:21:21;18.57;;;8.03;;
14484;SDS011;7328;50.812;4.422;2022-10-31T11:26:36;13.57;;;7.80;;
14484;SDS011;7328;50.812;4.422;2022-10-31T11:29:03;11.90;;;6.97;;
14484;SDS011;7328;50.812;4.422;2022-10-31T11:31:30;11.10;;;6.43;;
14484;SDS011;7328;50.812;4.422;2022-10-31T11:34:00;11.47;;;7.10;;
14484;SDS011;7328;50.812;4.422;2022-10-31T11:36:29;14.53;;;7.13;;
14484;SDS011;7328;50.812;4.422;2022-10-31T11:38:58;16.17;;;6.83;;
14484;SDS011;7328;50.812;4.422;2022-10-31T11:41:30;12.33;;;6.53;;
14484;SDS011;7328;50.812;4.422;2022-10-31T11:44:02;9.60;;;7.63;;
14484;SDS011;7328;50.812;4.422;2022-10-31T11:46:39;11.03;;;8.00;;
14484;SDS011;7328;50.812;4.422;2022-10-31T11:49:17;9.77;;;6.13;;
14484;SDS011;7328;50.812;4.422;2022-10-31T11:51:49;11.87;;;6.73;;
14484;SDS011;7328;50.812;4.422;2022-10-31T11:54:25;12.93;;;7.40;;
14484;SDS011;7328;50.812;4.422;2022-10-31T11:56:54;12.57;;;6.60;;
14484;SDS011;7328;50.812;4.422;2022-10-31T11:59:27;8.37;;;6.20;;
14484;SDS011;7328;50.812;4.422;2022-10-31T12:01:55;16.80;;;6.80;;
14484;SDS011;7328;50.812;4.422;2022-10-31T12:04:56;10.17;;;6.17;;
14484;SDS011;7328;50.812;4.422;2022-10-31T12:07:10;13.03;;;5.97;;
14484;SDS011;7328;50.812;4.422;2022-10-31T12:09:36;8.13;;;5.50;;
14484;SDS011;7328;50.812;4.422;2022-10-31T12:25:56;8.07;;;4.57;;
14484;SDS011;7328;50.812;4.422;2022-10-31T12:31:21;18.17;;;4.63;;
14484;SDS011;7328;50.812;4.422;2022-10-31T12:37:11;9.20;;;4.80;;
14484;SDS011;7328;50.812;4.422;2022-10-31T12:47:57;7.20;;;4.80;;
14484;SDS011;7328;50.812;4.422;2022-10-31T12:56:03;12.33;;;6.27;;
14484;SDS011;7328;50.812;4.422;2022-10-31T12:59:04;13.93;;;5.70;;
14484;SDS011;7328;50.812;4.422;2022-10-31T13:07:40;10.23;;;5.00;;
14484;SDS011;7328;50.812;4.422;2022-10-31T13:10:29;10.90;;;5.10;;
14484;SDS011;7328;50.812;4.422;2022-10-31T13:12:58;10.30;;;7.03;;
14484;SDS011;7328;50.812;4.422;2022-10-31T13:15:32;12.70;;;5.10;;
14484;SDS011;7328;50.812;4.422;2022-10-31T13:18:06;18.30;;;6.43;;
14484;SDS011;7328;50.812;4.422;2022-10-31T13:20:44;9.07;;;5.63;;
14484;SDS011;7328;50.812;4.422;2022-10-31T13:25:51;9.40;;;4.53;;
14484;SDS011;7328;50.812;4.422;2022-10-31T13:31:05;9.37;;;5.57;;
14484;SDS011;7328;50.812;4.422;2022-10-31T13:33:52;7.27;;;5.03;;
14484;SDS011;7328;50.812;4.422;2022-10-31T13:36:36;8.10;;;4.90;;
14484;SDS011;7328;50.812;4.422;2022-10-31T13:41:50;11.30;;;5.63;;
14484;SDS011;7328;50.812;4.422;2022-10-31T13:44:24;14.77;;;4.87;;
14484;SDS011;7328;50.812;4.422;2022-10-31T13:46:55;8.93;;;4.90;;
14484;SDS011;7328;50.812;4.422;2022-10-31T13:54:47;13.37;;;4.37;;
14484;SDS011;7328;50.812;4.422;2022-10-31T14:02:49;12.23;;;4.07;;
14484;SDS011;7328;50.812;4.422;2022-10-31T14:05:25;8.10;;;4.03;;
14484;SDS011;7328;50.812;4.422;2022-10-31T14:07:59;10.23;;;5.10;;
14484;SDS011;7328;50.812;4.422;2022-10-31T14:18:39;6.33;;;4.00;;
14484;SDS011;7328;50.812;4.422;2022-10-31T14:23:48;8.57;;;3.60;;
14484;SDS011;7328;50.812;4.422;2022-10-31T14:26:20;10.53;;;3.33;;
14484;SDS011;7328;50.812;4.422;2022-10-31T14:36:54;10.03;;;4.53;;
14484;SDS011;7328;50.812;4.422;2022-10-31T14:42:16;6.17;;;3.50;;
14484;SDS011;7328;50.812;4.422;2022-10-31T14:52:40;13.40;;;4.93;;
14484;SDS011;7328;50.812;4.422;2022-10-31T14:55:11;7.13;;;4.73;;
14484;SDS011;7328;50.812;4.422;2022-10-31T14:57:43;8.93;;;5.07;;
14484;SDS011;7328;50.812;4.422;2022-10-31T15:00:18;12.47;;;4.67;;
14484;SDS011;7328;50.812;4.422;2022-10-31T15:02:51;9.37;;;4.87;;
14484;SDS011;7328;50.812;4.422;2022-10-31T15:05:26;11.90;;;6.40;;
14484;SDS011;7328;50.812;4.422;2022-10-31T15:07:53;9.07;;;4.87;;
14484;SDS011;7328;50.812;4.422;2022-10-31T15:13:14;14.00;;;5.23;;
14484;SDS011;7328;50.812;4.422;2022-10-31T15:15:46;18.47;;;5.23;;
14484;SDS011;7328;50.812;4.422;2022-10-31T15:18:15;10.03;;;4.77;;
14484;SDS011;7328;50.812;4.422;2022-10-31T15:20:46;13.70;;;5.10;;
14484;SDS011;7328;50.812;4.422;2022-10-31T15:23:25;13.80;;;5.73;;
14484;SDS011;7328;50.812;4.422;2022-10-31T15:26:03;12.00;;;6.50;;
14484;SDS011;7328;50.812;4.422;2022-10-31T15:28:30;10.70;;;7.50;;
14484;SDS011;7328;50.812;4.422;2022-10-31T15:30:57;9.93;;;6.37;;
14484;SDS011;7328;50.812;4.422;2022-10-31T15:33:25;11.00;;;6.17;;
14484;SDS011;7328;50.812;4.422;2022-10-31T15:35:56;10.27;;;6.80;;
14484;SDS011;7328;50.812;4.422;2022-10-31T15:38:24;15.37;;;7.13;;
14484;SDS011;7328;50.812;4.422;2022-10-31T15:40:52;11.93;;;7.17;;
14484;SDS011;7328;50.812;4.422;2022-10-31T15:43:27;12.90;;;6.40;;
14484;SDS011;7328;50.812;4.422;2022-10-31T15:46:01;14.37;;;6.47;;
14484;SDS011;7328;50.812;4.422;2022-10-31T15:48:29;19.50;;;7.27;;
14484;SDS011;7328;50.812;4.422;2022-10-31T15:50:57;12.60;;;7.57;;
14484;SDS011;7328;50.812;4.422;2022-10-31T15:53:36;15.53;;;8.13;;
14484;SDS011;7328;50.812;4.422;2022-10-31T15:56:11;8.47;;;6.63;;
14484;SDS011;7328;50.812;4.422;2022-10-31T15:58:44;14.77;;;8.10;;
14484;SDS011;7328;50.812;4.422;2022-10-31T16:01:26;14.90;;;7.90;;
14484;SDS011;7328;50.812;4.422;2022-10-31T16:06:37;16.10;;;7.50;;
14484;SDS011;7328;50.812;4.422;2022-10-31T16:09:04;9.73;;;7.00;;
14484;SDS011;7328;50.812;4.422;2022-10-31T16:11:47;12.33;;;8.07;;
14484;SDS011;7328;50.812;4.422;2022-10-31T16:14:22;16.80;;;8.70;;
14484;SDS011;7328;50.812;4.422;2022-10-31T16:16:52;20.47;;;8.77;;
14484;SDS011;7328;50.812;4.422;2022-10-31T16:19:34;16.40;;;9.43;;
14484;SDS011;7328;50.812;4.422;2022-10-31T16:22:03;23.90;;;8.83;;
14484;SDS011;7328;50.812;4.422;2022-10-31T16:24:33;16.77;;;9.10;;
14484;SDS011;7328;50.812;4.422;2022-10-31T16:27:17;26.93;;;10.17;;
14484;SDS011;7328;50.812;4.422;2022-10-31T16:29:53;16.37;;;8.43;;
14484;SDS011;7328;50.812;4.422;2022-10-31T16:32:34;21.47;;;9.33;;
14484;SDS011;7328;50.812;4.422;2022-10-31T16:35:27;21.93;;;9.70;;
14484;SDS011;7328;50.812;4.422;2022-10-31T16:38:01;18.97;;;9.60;;
14484;SDS011;7328;50.812;4.422;2022-10-31T16:40:27;14.83;;;10.40;;
14484;SDS011;7328;50.812;4.422;2022-10-31T16:42:53;32.47;;;10.87;;
14484;SDS011;7328;50.812;4.422;2022-10-31T16:45:22;12.13;;;8.30;;
14484;SDS011;7328;50.812;4.422;2022-10-31T16:47:50;18.23;;;9.33;;
14484;SDS011;7328;50.812;4.422;2022-10-31T16:50:22;13.93;;;8.87;;
14484;SDS011;7328;50.812;4.422;2022-10-31T16:52:49;15.13;;;10.00;;
14484;SDS011;7328;50.812;4.422;2022-10-31T16:55:18;22.23;;;9.27;;
14484;SDS011;7328;50.812;4.422;2022-10-31T16:57:46;14.20;;;9.10;;
14484;SDS011;7328;50.812;4.422;2022-10-31T17:00:18;14.70;;;9.13;;
14484;SDS011;7328;50.812;4.422;2022-10-31T17:02:46;23.57;;;10.20;;
14484;SDS011;7328;50.812;4.422;2022-10-31T17:05:15;12.63;;;9.43;;
14484;SDS011;7328;50.812;4.422;2022-10-31T17:07:43;13.37;;;10.07;;
14484;SDS011;7328;50.812;4.422;2022-10-31T17:10:09;23.23;;;10.43;;
14484;SDS011;7328;50.812;4.422;2022-10-31T17:12:41;18.80;;;9.43;;
14484;SDS011;7328;50.812;4.422;2022-10-31T17:15:19;21.13;;;9.23;;
14484;SDS011;7328;50.812;4.422;2022-10-31T17:17:50;11.57;;;8.80;;
14484;SDS011;7328;50.812;4.422;2022-10-31T17:20:21;12.53;;;8.83;;
14484;SDS011;7328;50.812;4.422;2022-10-31T17:22:49;20.07;;;10.50;;
14484;SDS011;7328;50.812;4.422;2022-10-31T17:25:15;14.10;;;8.43;;
14484;SDS011;7328;50.812;4.422;2022-10-31T17:27:43;15.33;;;8.47;;
14484;SDS011;7328;50.812;4.422;2022-10-31T17:30:10;14.03;;;7.50;;
14484;SDS011;7328;50.812;4.422;2022-10-31T17:32:37;15.67;;;7.43;;
14484;SDS011;7328;50.812;4.422;2022-10-31T17:35:03;22.23;;;12.33;;
14484;SDS011;7328;50.812;4.422;2022-10-31T17:37:29;12.63;;;8.40;;
14484;SDS011;7328;50.812;4.422;2022-10-31T17:39:55;14.27;;;8.27;;
14484;SDS011;7328;50.812;4.422;2022-10-31T17:42:21;11.57;;;7.23;;
14484;SDS011;7328;50.812;4.422;2022-10-31T17:44:46;9.37;;;6.23;;
14484;SDS011;7328;50.812;4.422;2022-10-31T17:47:12;16.93;;;8.43;;
14484;SDS011;7328;50.812;4.422;2022-10-31T17:49:38;11.33;;;7.10;;
14484;SDS011;7328;50.812;4.422;2022-10-31T17:52:04;12.93;;;6.87;;
14484;SDS011;7328;50.812;4.422;2022-10-31T17:54:30;14.73;;;7.70;;